sensor_id;sensor_type;location;lat;lon;timestamp;pressure;altitude;pressure_sealevel;temperature;humidity
2841;BME280;53423;49.224;12.074;2023-02-18T00:00:33;98408.53;;;11.18;72.31
2841;BME280;53423;49.224;12.074;2023-02-18T00:03:01;98413.41;;;11.31;72.05
2841;BME280;53423;49.224;12.074;2023-02-18T00:05:29;98412.59;;;11.30;71.12
2841;BME280;53423;49.224;12.074;2023-02-18T00:07:57;98410.25;;;11.27;71.98
2841;BME280;53423;49.224;12.074;2023-02-18T00:10:26;98407.13;;;11.23;71.86
2841;BME280;53423;49.224;12.074;2023-02-18T00:12:54;98411.06;;;11.27;72.42
2841;BME280;53423;49.224;12.074;2023-02-18T00:15:22;98409.53;;;11.17;72.08
2841;BME280;53423;49.224;12.074;2023-02-18T00:17:50;98408.66;;;11.34;71.22
2841;BME280;53423;49.224;12.074;2023-02-18T00:20:18;98402.97;;;11.21;72.53
2841;BME280;53423;49.224;12.074;2023-02-18T00:22:46;98392.31;;;11.22;71.99
2841;BME280;53423;49.224;12.074;2023-02-18T00:25:14;98396.09;;;11.20;72.22
2841;BME280;53423;49.224;12.074;2023-02-18T00:27:43;98397.34;;;11.16;72.38
2841;BME280;53423;49.224;12.074;2023-02-18T00:30:12;98400.41;;;11.29;71.08
2841;BME280;53423;49.224;12.074;2023-02-18T00:32:40;98395.31;;;11.45;70.98
2841;BME280;53423;49.224;12.074;2023-02-18T00:35:08;98388.88;;;11.40;70.96
2841;BME280;53423;49.224;12.074;2023-02-18T00:37:36;98388.72;;;11.41;70.18
2841;BME280;53423;49.224;12.074;2023-02-18T00:40:05;98393.59;;;11.36;70.36
2841;BME280;53423;49.224;12.074;2023-02-18T00:42:33;98398.69;;;11.38;70.69
2841;BME280;53423;49.224;12.074;2023-02-18T00:45:03;98398.41;;;11.41;70.80
2841;BME280;53423;49.224;12.074;2023-02-18T00:47:31;98396.09;;;11.20;70.87
2841;BME280;53423;49.224;12.074;2023-02-18T00:49:59;98397.50;;;11.14;72.45
2841;BME280;53423;49.224;12.074;2023-02-18T00:52:27;98396.81;;;11.12;71.59
2841;BME280;53423;49.224;12.074;2023-02-18T00:54:55;98400.06;;;11.06;71.54
2841;BME280;53423;49.224;12.074;2023-02-18T00:57:23;98402.28;;;11.19;71.92
2841;BME280;53423;49.224;12.074;2023-02-18T00:59:51;98394.78;;;11.24;70.63
2841;BME280;53423;49.224;12.074;2023-02-18T01:02:20;98405.06;;;11.35;70.83
2841;BME280;53423;49.224;12.074;2023-02-18T01:04:48;98402.53;;;11.25;70.15
2841;BME280;53423;49.224;12.074;2023-02-18T01:07:16;98397.41;;;11.24;70.74
2841;BME280;53423;49.224;12.074;2023-02-18T01:09:44;98402.91;;;11.31;70.37
2841;BME280;53423;49.224;12.074;2023-02-18T01:12:12;98394.88;;;11.32;70.32
2841;BME280;53423;49.224;12.074;2023-02-18T01:14:40;98390.53;;;11.23;71.28
2841;BME280;53423;49.224;12.074;2023-02-18T01:17:08;98397.94;;;11.27;71.74
2841;BME280;53423;49.224;12.074;2023-02-18T01:19:37;98389.63;;;11.32;71.76
2841;BME280;53423;49.224;12.074;2023-02-18T01:22:05;98396.22;;;11.36;70.07
2841;BME280;53423;49.224;12.074;2023-02-18T01:24:33;98393.53;;;11.28;70.42
2841;BME280;53423;49.224;12.074;2023-02-18T01:27:01;98404.41;;;11.15;72.07
2841;BME280;53423;49.224;12.074;2023-02-18T01:29:29;98395.25;;;11.19;71.12
2841;BME280;53423;49.224;12.074;2023-02-18T01:31:57;98402.16;;;11.20;70.92
2841;BME280;53423;49.224;12.074;2023-02-18T01:34:25;98398.88;;;11.18;71.15
2841;BME280;53423;49.224;12.074;2023-02-18T01:36:54;98389.13;;;11.28;70.83
2841;BME280;53423;49.224;12.074;2023-02-18T01:39:22;98393.53;;;11.28;71.50
2841;BME280;53423;49.224;12.074;2023-02-18T01:41:50;98388.34;;;11.36;70.03
2841;BME280;53423;49.224;12.074;2023-02-18T01:44:21;98383.41;;;11.33;70.23
2841;BME280;53423;49.224;12.074;2023-02-18T01:46:49;98378.47;;;11.30;70.75
2841;BME280;53423;49.224;12.074;2023-02-18T01:49:21;98381.97;;;11.39;70.39
2841;BME280;53423;49.224;12.074;2023-02-18T01:51:52;98374.03;;;11.31;71.36
2841;BME280;53423;49.224;12.074;2023-02-18T01:54:26;98378.88;;;11.43;69.79
2841;BME280;53423;49.224;12.074;2023-02-18T01:56:58;98378.72;;;11.45;70.01
2841;BME280;53423;49.224;12.074;2023-02-18T01:59:30;98378.69;;;11.37;70.13
2841;BME280;53423;49.224;12.074;2023-02-18T02:01:58;98371.47;;;11.39;70.55
2841;BME280;53423;49.224;12.074;2023-02-18T02:04:27;98381.50;;;11.43;70.11
2841;BME280;53423;49.224;12.074;2023-02-18T02:06:55;98377.97;;;11.52;69.02
2841;BME280;53423;49.224;12.074;2023-02-18T02:09:25;98371.25;;;11.32;70.36
2841;BME280;53423;49.224;12.074;2023-02-18T02:14:58;98382.88;;;11.29;70.97
2841;BME280;53423;49.224;12.074;2023-02-18T02:17:36;98381.31;;;11.19;71.11
2841;BME280;53423;49.224;12.074;2023-02-18T02:20:37;98381.25;;;11.11;72.64
2841;BME280;53423;49.224;12.074;2023-02-18T02:27:08;98379.19;;;11.22;71.78
2841;BME280;53423;49.224;12.074;2023-02-18T02:35:56;98361.81;;;11.04;71.42
2841;BME280;53423;49.224;12.074;2023-02-18T02:38:31;98353.50;;;10.91;71.79
2841;BME280;53423;49.224;12.074;2023-02-18T02:41:09;98345.13;;;11.05;71.39
2841;BME280;53423;49.224;12.074;2023-02-18T02:43:46;98349.59;;;11.12;71.96
2841;BME280;53423;49.224;12.074;2023-02-18T02:46:20;98349.44;;;11.14;71.08
2841;BME280;53423;49.224;12.074;2023-02-18T02:48:54;98338.88;;;11.06;72.07
2841;BME280;53423;49.224;12.074;2023-02-18T02:51:29;98346.81;;;11.14;71.06
2841;BME280;53423;49.224;12.074;2023-02-18T02:54:09;98351.13;;;11.15;72.05
2841;BME280;53423;49.224;12.074;2023-02-18T02:56:38;98340.81;;;11.21;71.35
2841;BME280;53423;49.224;12.074;2023-02-18T02:59:11;98346.28;;;11.28;71.48
2841;BME280;53423;49.224;12.074;2023-02-18T03:01:52;98354.78;;;11.22;71.94
2841;BME280;53423;49.224;12.074;2023-02-18T03:04:41;98354.56;;;11.15;71.88
2841;BME280;53423;49.224;12.074;2023-02-18T03:07:22;98345.03;;;11.14;71.55
2841;BME280;53423;49.224;12.074;2023-02-18T03:10:10;98340.63;;;11.15;71.26
2841;BME280;53423;49.224;12.074;2023-02-18T03:12:48;98333.41;;;11.17;70.92
2841;BME280;53423;49.224;12.074;2023-02-18T03:15:23;98339.94;;;11.13;72.08
2841;BME280;53423;49.224;12.074;2023-02-18T03:17:57;98340.69;;;11.23;70.65
2841;BME280;53423;49.224;12.074;2023-02-18T03:20:32;98343.09;;;11.16;71.50
2841;BME280;53423;49.224;12.074;2023-02-18T03:23:06;98332.44;;;11.18;71.23
2841;BME280;53423;49.224;12.074;2023-02-18T03:25:37;98341.44;;;11.15;71.24
2841;BME280;53423;49.224;12.074;2023-02-18T03:28:07;98336.69;;;11.19;71.34
2841;BME280;53423;49.224;12.074;2023-02-18T03:30:41;98338.94;;;11.32;70.63
2841;BME280;53423;49.224;12.074;2023-02-18T03:33:13;98335.03;;;11.36;70.28
2841;BME280;53423;49.224;12.074;2023-02-18T03:35:43;98332.06;;;11.31;71.23
2841;BME280;53423;49.224;12.074;2023-02-18T03:38:18;98336.84;;;11.35;70.67
2841;BME280;53423;49.224;12.074;2023-02-18T03:40:48;98336.00;;;11.35;70.87
2841;BME280;53423;49.224;12.074;2023-02-18T03:43:16;98328.59;;;11.30;70.27
2841;BME280;53423;49.224;12.074;2023-02-18T03:45:44;98334.81;;;11.29;71.33
2841;BME280;53423;49.224;12.074;2023-02-18T03:48:12;98340.69;;;11.23;70.66
2841;BME280;53423;49.224;12.074;2023-02-18T03:50:40;98338.56;;;11.26;70.89
2841;BME280;53423;49.224;12.074;2023-02-18T03:53:08;98339.41;;;11.09;71.77
2841;BME280;53423;49.224;12.074;2023-02-18T03:55:37;98341.44;;;11.15;71.90
2841;BME280;53423;49.224;12.074;2023-02-18T03:58:05;98336.63;;;11.11;71.62
2841;BME280;53423;49.224;12.074;2023-02-18T04:00:33;98332.81;;;11.23;71.36
2841;BME280;53423;49.224;12.074;2023-02-18T04:03:01;98345.66;;;11.34;70.35
2841;BME280;53423;49.224;12.074;2023-02-18T04:05:29;98349.50;;;11.40;71.04
2841;BME280;53423;49.224;12.074;2023-02-18T04:07:57;98341.72;;;11.12;71.72
2841;BME280;53423;49.224;12.074;2023-02-18T04:10:25;98355.75;;;11.21;71.96
2841;BME280;53423;49.224;12.074;2023-02-18T04:12:54;98342.34;;;11.06;72.10
2841;BME280;53423;49.224;12.074;2023-02-18T04:15:22;98355.38;;;11.16;71.77
2841;BME280;53423;49.224;12.074;2023-02-18T04:17:50;98341.28;;;11.17;71.36
2841;BME280;53423;49.224;12.074;2023-02-18T04:20:18;98352.38;;;11.11;71.71
2841;BME280;53423;49.224;12.074;2023-02-18T04:22:48;98347.50;;;11.16;71.09
2841;BME280;53423;49.224;12.074;2023-02-18T04:25:16;98339.63;;;11.16;70.84
2841;BME280;53423;49.224;12.074;2023-02-18T04:27:44;98343.03;;;11.08;71.44
2841;BME280;53423;49.224;12.074;2023-02-18T04:30:14;98344.19;;;11.14;71.20
2841;BME280;53423;49.224;12.074;2023-02-18T04:32:44;98343.81;;;11.09;71.00
2841;BME280;53423;49.224;12.074;2023-02-18T04:35:12;98346.00;;;11.13;72.45
2841;BME280;53423;49.224;12.074;2023-02-18T04:37:40;98353.88;;;11.13;71.17
2841;BME280;53423;49.224;12.074;2023-02-18T04:40:09;98347.38;;;11.00;71.67
2841;BME280;53423;49.224;12.074;2023-02-18T04:42:37;98352.47;;;11.01;71.82
2841;BME280;53423;49.224;12.074;2023-02-18T04:45:05;98349.53;;;11.04;71.78
2841;BME280;53423;49.224;12.074;2023-02-18T04:47:35;98340.97;;;11.02;72.50
2841;BME280;53423;49.224;12.074;2023-02-18T04:50:04;98338.16;;;11.13;72.04
2841;BME280;53423;49.224;12.074;2023-02-18T04:52:32;98339.78;;;11.14;72.32
2841;BME280;53423;49.224;12.074;2023-02-18T04:55:00;98341.66;;;11.22;72.02
2841;BME280;53423;49.224;12.074;2023-02-18T04:57:27;98339.09;;;11.30;70.55
2841;BME280;53423;49.224;12.074;2023-02-18T04:59:55;98346.06;;;11.21;70.70
2841;BME280;53423;49.224;12.074;2023-02-18T05:02:23;98344.66;;;11.27;70.60
2841;BME280;53423;49.224;12.074;2023-02-18T05:04:53;98348.34;;;11.16;72.11
2841;BME280;53423;49.224;12.074;2023-02-18T05:07:21;98339.84;;;11.22;71.77
2841;BME280;53423;49.224;12.074;2023-02-18T05:09:48;98340.63;;;11.15;71.97
2841;BME280;53423;49.224;12.074;2023-02-18T05:12:16;98339.19;;;11.03;72.35
2841;BME280;53423;49.224;12.074;2023-02-18T05:14:45;98341.59;;;10.96;72.23
2841;BME280;53423;49.224;12.074;2023-02-18T05:17:12;98342.41;;;11.14;71.21
2841;BME280;53423;49.224;12.074;2023-02-18T05:19:40;98345.25;;;11.21;71.67
2841;BME280;53423;49.224;12.074;2023-02-18T05:22:10;98342.03;;;11.27;71.04
2841;BME280;53423;49.224;12.074;2023-02-18T05:24:38;98347.28;;;11.27;71.56
2841;BME280;53423;49.224;12.074;2023-02-18T05:27:05;98349.69;;;11.20;72.16
2841;BME280;53423;49.224;12.074;2023-02-18T05:29:33;98350.53;;;11.03;72.38
2841;BME280;53423;49.224;12.074;2023-02-18T05:32:01;98358.31;;;11.13;73.08
2841;BME280;53423;49.224;12.074;2023-02-18T05:34:29;98349.00;;;11.18;72.88
2841;BME280;53423;49.224;12.074;2023-02-18T05:36:57;98360.66;;;10.98;73.33
2841;BME280;53423;49.224;12.074;2023-02-18T05:39:26;98349.78;;;10.93;72.99
2841;BME280;53423;49.224;12.074;2023-02-18T05:41:54;98359.44;;;10.93;73.21
2841;BME280;53423;49.224;12.074;2023-02-18T05:44:22;98357.34;;;10.96;74.22
2841;BME280;53423;49.224;12.074;2023-02-18T05:46:57;98357.50;;;10.95;73.24
2841;BME280;53423;49.224;12.074;2023-02-18T05:49:25;98362.50;;;11.06;73.39
2841;BME280;53423;49.224;12.074;2023-02-18T05:51:53;98354.25;;;11.01;73.86
2841;BME280;53423;49.224;12.074;2023-02-18T05:54:21;98349.59;;;11.12;73.52
2841;BME280;53423;49.224;12.074;2023-02-18T05:56:51;98351.78;;;10.99;72.96
2841;BME280;53423;49.224;12.074;2023-02-18T05:59:19;98353.56;;;10.99;73.54
2841;BME280;53423;49.224;12.074;2023-02-18T06:01:47;98346.69;;;10.98;73.12
2841;BME280;53423;49.224;12.074;2023-02-18T06:04:15;98347.38;;;11.00;73.67
2841;BME280;53423;49.224;12.074;2023-02-18T06:06:43;98352.84;;;11.06;73.17
2841;BME280;53423;49.224;12.074;2023-02-18T06:09:12;98353.72;;;10.97;73.39
2841;BME280;53423;49.224;12.074;2023-02-18T06:11:40;98351.94;;;10.98;74.14
2841;BME280;53423;49.224;12.074;2023-02-18T06:14:09;98349.63;;;10.95;74.82
2841;BME280;53423;49.224;12.074;2023-02-18T06:16:37;98345.19;;;10.95;74.86
2841;BME280;53423;49.224;12.074;2023-02-18T06:19:05;98347.06;;;11.03;74.63
2841;BME280;53423;49.224;12.074;2023-02-18T06:21:33;98351.41;;;11.12;73.04
2841;BME280;53423;49.224;12.074;2023-02-18T06:24:01;98345.25;;;11.21;73.91
2841;BME280;53423;49.224;12.074;2023-02-18T06:26:29;98349.16;;;10.99;73.41
2841;BME280;53423;49.224;12.074;2023-02-18T06:28:57;98354.94;;;11.03;73.24
2841;BME280;53423;49.224;12.074;2023-02-18T06:31:27;98356.19;;;10.99;73.32
2841;BME280;53423;49.224;12.074;2023-02-18T06:33:55;98344.38;;;10.95;74.65
2841;BME280;53423;49.224;12.074;2023-02-18T06:36:23;98348.50;;;11.15;73.00
2841;BME280;53423;49.224;12.074;2023-02-18T06:38:51;98353.56;;;10.99;74.46
2841;BME280;53423;49.224;12.074;2023-02-18T06:41:22;98362.06;;;10.93;74.01
2841;BME280;53423;49.224;12.074;2023-02-18T06:43:50;98348.63;;;10.96;74.00
2841;BME280;53423;49.224;12.074;2023-02-18T06:46:18;98342.13;;;11.00;74.07
2841;BME280;53423;49.224;12.074;2023-02-18T06:48:48;98353.31;;;11.02;74.16
2841;BME280;53423;49.224;12.074;2023-02-18T06:51:16;98344.50;;;11.11;73.37
2841;BME280;53423;49.224;12.074;2023-02-18T06:53:45;98352.97;;;10.87;75.19
2841;BME280;53423;49.224;12.074;2023-02-18T06:56:13;98344.06;;;10.98;74.09
2841;BME280;53423;49.224;12.074;2023-02-18T06:58:41;98341.75;;;10.95;74.34
2841;BME280;53423;49.224;12.074;2023-02-18T07:01:09;98330.72;;;11.09;73.50
2841;BME280;53423;49.224;12.074;2023-02-18T07:03:36;98329.06;;;11.08;73.74
2841;BME280;53423;49.224;12.074;2023-02-18T07:06:06;98321.19;;;11.08;74.23
2841;BME280;53423;49.224;12.074;2023-02-18T07:08:35;98322.56;;;11.12;73.09
2841;BME280;53423;49.224;12.074;2023-02-18T07:11:03;98318.72;;;11.06;73.78
2841;BME280;53423;49.224;12.074;2023-02-18T07:13:31;98321.56;;;11.13;73.53
2841;BME280;53423;49.224;12.074;2023-02-18T07:15:59;98316.38;;;11.21;74.00
2841;BME280;53423;49.224;12.074;2023-02-18T07:18:27;98313.69;;;11.13;74.46
2841;BME280;53423;49.224;12.074;2023-02-18T07:20:55;98312.34;;;11.09;73.31
2841;BME280;53423;49.224;12.074;2023-02-18T07:23:24;98310.09;;;11.14;74.14
2841;BME280;53423;49.224;12.074;2023-02-18T07:25:52;98315.28;;;11.06;73.72
2841;BME280;53423;49.224;12.074;2023-02-18T07:28:28;98315.59;;;11.03;73.63
2841;BME280;53423;49.224;12.074;2023-02-18T07:30:56;98312.09;;;10.77;74.64
2841;BME280;53423;49.224;12.074;2023-02-18T07:33:24;98309.75;;;10.91;75.01
2841;BME280;53423;49.224;12.074;2023-02-18T07:35:53;98310.97;;;10.97;74.40
2841;BME280;53423;49.224;12.074;2023-02-18T07:38:22;98313.94;;;11.02;73.44
2841;BME280;53423;49.224;12.074;2023-02-18T07:40:52;98315.13;;;11.07;74.19
2841;BME280;53423;49.224;12.074;2023-02-18T07:43:20;98312.44;;;10.99;73.52
2841;BME280;53423;49.224;12.074;2023-02-18T07:45:49;98317.47;;;10.93;74.99
2841;BME280;53423;49.224;12.074;2023-02-18T07:48:17;98309.13;;;11.15;74.10
2841;BME280;53423;49.224;12.074;2023-02-18T07:50:45;98313.38;;;11.16;74.21
2841;BME280;53423;49.224;12.074;2023-02-18T07:53:14;98318.06;;;11.04;74.23
2841;BME280;53423;49.224;12.074;2023-02-18T07:55:42;98306.50;;;10.97;74.75
2841;BME280;53423;49.224;12.074;2023-02-18T07:58:21;98311.38;;;11.10;74.58
2841;BME280;53423;49.224;12.074;2023-02-18T08:00:50;98316.31;;;10.95;74.52
2841;BME280;53423;49.224;12.074;2023-02-18T08:03:20;98313.84;;;10.94;75.99
2841;BME280;53423;49.224;12.074;2023-02-18T08:05:50;98316.47;;;10.94;75.34
2841;BME280;53423;49.224;12.074;2023-02-18T08:08:19;98315.28;;;11.06;75.21
2841;BME280;53423;49.224;12.074;2023-02-18T08:10:49;98319.56;;;10.89;75.18
2841;BME280;53423;49.224;12.074;2023-02-18T08:13:17;98315.22;;;10.98;74.73
2841;BME280;53423;49.224;12.074;2023-02-18T08:15:46;98312.19;;;11.10;75.38
2841;BME280;53423;49.224;12.074;2023-02-18T08:18:16;98306.81;;;11.12;74.51
2841;BME280;53423;49.224;12.074;2023-02-18T08:20:44;98305.97;;;11.11;74.41
2841;BME280;53423;49.224;12.074;2023-02-18T08:23:14;98307.78;;;11.11;73.78
2841;BME280;53423;49.224;12.074;2023-02-18T08:25:44;98306.03;;;11.19;73.37
2841;BME280;53423;49.224;12.074;2023-02-18T08:28:15;98306.47;;;11.32;73.02
2841;BME280;53423;49.224;12.074;2023-02-18T08:30:45;98297.03;;;11.48;72.20
2841;BME280;53423;49.224;12.074;2023-02-18T08:33:14;98291.50;;;11.51;71.38
2841;BME280;53423;49.224;12.074;2023-02-18T08:35:43;98290.13;;;11.64;71.81
2841;BME280;53423;49.224;12.074;2023-02-18T08:38:12;98286.44;;;11.83;71.10
2841;BME280;53423;49.224;12.074;2023-02-18T08:40:40;98288.56;;;11.79;70.54
2841;BME280;53423;49.224;12.074;2023-02-18T08:43:08;98291.69;;;11.83;71.13
2841;BME280;53423;49.224;12.074;2023-02-18T08:45:36;98286.19;;;12.02;70.18
2841;BME280;53423;49.224;12.074;2023-02-18T08:48:07;98282.03;;;11.91;69.58
2841;BME280;53423;49.224;12.074;2023-02-18T08:50:45;98276.00;;;11.99;70.67
2841;BME280;53423;49.224;12.074;2023-02-18T08:53:13;98275.53;;;12.11;68.69
2841;BME280;53423;49.224;12.074;2023-02-18T08:55:41;98277.56;;;12.17;69.19
2841;BME280;53423;49.224;12.074;2023-02-18T08:58:09;98270.50;;;12.18;67.08
2841;BME280;53423;49.224;12.074;2023-02-18T09:00:39;98272.47;;;12.16;68.11
2841;BME280;53423;49.224;12.074;2023-02-18T09:03:11;98269.19;;;12.30;67.77
2841;BME280;53423;49.224;12.074;2023-02-18T09:05:39;98257.44;;;12.74;66.31
2841;BME280;53423;49.224;12.074;2023-02-18T09:08:07;98242.25;;;13.56;64.23
2841;BME280;53423;49.224;12.074;2023-02-18T09:10:35;98243.13;;;13.88;61.63
2841;BME280;53423;49.224;12.074;2023-02-18T09:13:05;98249.66;;;14.00;61.33
2841;BME280;53423;49.224;12.074;2023-02-18T09:15:32;98249.41;;;14.17;59.57
2841;BME280;53423;49.224;12.074;2023-02-18T09:18:01;98244.47;;;14.14;58.99
2841;BME280;53423;49.224;12.074;2023-02-18T09:20:30;98238.91;;;14.09;59.10
2841;BME280;53423;49.224;12.074;2023-02-18T09:22:58;98232.84;;;13.62;61.04
2841;BME280;53423;49.224;12.074;2023-02-18T09:25:27;98228.69;;;13.67;59.91
2841;BME280;53423;49.224;12.074;2023-02-18T09:27:55;98219.84;;;13.60;59.70
2841;BME280;53423;49.224;12.074;2023-02-18T09:30:23;98220.16;;;13.57;59.63
2841;BME280;53423;49.224;12.074;2023-02-18T09:32:50;98208.19;;;13.47;59.46
2841;BME280;53423;49.224;12.074;2023-02-18T09:35:18;98207.81;;;13.58;59.10
2841;BME280;53423;49.224;12.074;2023-02-18T09:37:48;98211.88;;;13.77;58.82
2841;BME280;53423;49.224;12.074;2023-02-18T09:40:24;98212.59;;;13.93;57.77
2841;BME280;53423;49.224;12.074;2023-02-18T09:42:54;98201.19;;;13.70;57.95
2841;BME280;53423;49.224;12.074;2023-02-18T09:45:23;98207.53;;;14.22;57.04
2841;BME280;53423;49.224;12.074;2023-02-18T09:47:52;98199.78;;;14.21;56.09
2841;BME280;53423;49.224;12.074;2023-02-18T09:50:23;98197.81;;;14.15;55.37
2841;BME280;53423;49.224;12.074;2023-02-18T09:52:54;98194.50;;;14.21;55.42
2841;BME280;53423;49.224;12.074;2023-02-18T09:55:26;98180.84;;;14.48;55.07
2841;BME280;53423;49.224;12.074;2023-02-18T09:57:56;98188.56;;;14.49;54.27
2841;BME280;53423;49.224;12.074;2023-02-18T10:00:29;98180.72;;;13.80;54.90
2841;BME280;53423;49.224;12.074;2023-02-18T10:03:01;98198.81;;;13.83;55.90
2841;BME280;53423;49.224;12.074;2023-02-18T10:05:32;98189.66;;;13.71;56.01
2841;BME280;53423;49.224;12.074;2023-02-18T10:08:04;98192.56;;;13.84;55.61
2841;BME280;53423;49.224;12.074;2023-02-18T10:10:38;98200.47;;;13.45;56.57
2841;BME280;53423;49.224;12.074;2023-02-18T10:13:12;98206.06;;;13.81;55.75
2841;BME280;53423;49.224;12.074;2023-02-18T10:15:41;98189.59;;;13.87;56.26
2841;BME280;53423;49.224;12.074;2023-02-18T10:18:19;98194.22;;;13.85;56.40
2841;BME280;53423;49.224;12.074;2023-02-18T10:20:49;98191.09;;;14.12;55.09
2841;BME280;53423;49.224;12.074;2023-02-18T10:23:20;98179.00;;;13.95;55.01
2841;BME280;53423;49.224;12.074;2023-02-18T10:25:49;98177.16;;;14.04;55.35
2841;BME280;53423;49.224;12.074;2023-02-18T10:28:18;98172.09;;;13.94;55.99
2841;BME280;53423;49.224;12.074;2023-02-18T10:30:53;98169.63;;;13.93;55.49
2841;BME280;53423;49.224;12.074;2023-02-18T10:33:32;98166.53;;;13.89;55.64
2841;BME280;53423;49.224;12.074;2023-02-18T10:36:08;98159.69;;;14.03;55.04
2841;BME280;53423;49.224;12.074;2023-02-18T10:38:52;98167.84;;;13.85;55.42
2841;BME280;53423;49.224;12.074;2023-02-18T10:41:30;98162.88;;;13.90;55.44
2841;BME280;53423;49.224;12.074;2023-02-18T10:44:06;98174.00;;;13.69;55.63
2841;BME280;53423;49.224;12.074;2023-02-18T10:46:45;98165.56;;;13.82;55.59
2841;BME280;53423;49.224;12.074;2023-02-18T10:49:47;98156.31;;;13.86;55.09
2841;BME280;53423;49.224;12.074;2023-02-18T10:52:18;98160.22;;;13.59;55.61
2841;BME280;53423;49.224;12.074;2023-02-18T10:54:51;98164.34;;;13.62;54.96
2841;BME280;53423;49.224;12.074;2023-02-18T10:57:21;98164.34;;;13.62;55.05
2841;BME280;53423;49.224;12.074;2023-02-18T11:00:01;98135.94;;;13.80;54.64
2841;BME280;53423;49.224;12.074;2023-02-18T11:02:37;98126.47;;;13.94;54.89
2841;BME280;53423;49.224;12.074;2023-02-18T11:05:17;98125.44;;;14.03;52.91
2841;BME280;53423;49.224;12.074;2023-02-18T11:07:48;98126.50;;;14.16;52.84
2841;BME280;53423;49.224;12.074;2023-02-18T11:10:22;98123.34;;;13.90;52.89
2841;BME280;53423;49.224;12.074;2023-02-18T11:12:55;98120.00;;;13.96;53.44
2841;BME280;53423;49.224;12.074;2023-02-18T11:15:24;98100.94;;;13.94;53.29
2841;BME280;53423;49.224;12.074;2023-02-18T11:18:04;98100.41;;;14.21;53.09
2841;BME280;53423;49.224;12.074;2023-02-18T11:20:39;98100.19;;;14.31;52.84
2841;BME280;53423;49.224;12.074;2023-02-18T11:23:19;98089.97;;;14.50;52.58
2841;BME280;53423;49.224;12.074;2023-02-18T11:25:57;98094.19;;;14.37;52.12
2841;BME280;53423;49.224;12.074;2023-02-18T11:28:39;98090.56;;;14.15;52.27
2841;BME280;53423;49.224;12.074;2023-02-18T11:31:11;98083.19;;;14.33;52.44
2841;BME280;53423;49.224;12.074;2023-02-18T11:33:46;98082.38;;;14.33;52.53
2841;BME280;53423;49.224;12.074;2023-02-18T11:36:22;98088.69;;;14.46;51.98
2841;BME280;53423;49.224;12.074;2023-02-18T11:38:53;98068.38;;;14.47;52.49
2841;BME280;53423;49.224;12.074;2023-02-18T11:41:31;98061.38;;;14.17;52.83
2841;BME280;53423;49.224;12.074;2023-02-18T11:44:00;98066.47;;;14.41;51.98
2841;BME280;53423;49.224;12.074;2023-02-18T11:46:29;98052.00;;;14.37;51.67
2841;BME280;53423;49.224;12.074;2023-02-18T11:49:10;98051.84;;;14.16;52.60
2841;BME280;53423;49.224;12.074;2023-02-18T11:51:47;98055.47;;;13.92;53.50
2841;BME280;53423;49.224;12.074;2023-02-18T11:54:24;98049.81;;;14.26;53.45
2841;BME280;53423;49.224;12.074;2023-02-18T11:56:56;98050.63;;;14.04;53.02
2841;BME280;53423;49.224;12.074;2023-02-18T11:59:26;98045.91;;;14.14;53.06
2841;BME280;53423;49.224;12.074;2023-02-18T12:02:01;98051.28;;;14.20;53.10
2841;BME280;53423;49.224;12.074;2023-02-18T12:04:35;98041.09;;;14.40;52.36
2841;BME280;53423;49.224;12.074;2023-02-18T12:07:14;98032.69;;;13.99;53.39
2841;BME280;53423;49.224;12.074;2023-02-18T12:09:46;98030.66;;;14.46;52.39
2841;BME280;53423;49.224;12.074;2023-02-18T12:12:24;98024.09;;;14.57;52.03
2841;BME280;53423;49.224;12.074;2023-02-18T12:14:54;98022.66;;;14.54;52.67
2841;BME280;53423;49.224;12.074;2023-02-18T12:17:41;98021.47;;;14.42;52.63
2841;BME280;53423;49.224;12.074;2023-02-18T12:20:25;98013.13;;;14.68;52.67
2841;BME280;53423;49.224;12.074;2023-02-18T12:23:05;98019.47;;;14.44;53.75
2841;BME280;53423;49.224;12.074;2023-02-18T12:25:43;98012.72;;;14.27;53.60
2841;BME280;53423;49.224;12.074;2023-02-18T12:28:28;98014.38;;;14.43;52.50
2841;BME280;53423;49.224;12.074;2023-02-18T12:31:21;98006.47;;;14.43;52.73
2841;BME280;53423;49.224;12.074;2023-02-18T12:34:12;97998.28;;;14.52;52.29
2841;BME280;53423;49.224;12.074;2023-02-18T12:36:56;98008.34;;;13.97;53.38
2841;BME280;53423;49.224;12.074;2023-02-18T12:39:47;98004.41;;;13.93;53.73
2841;BME280;53423;49.224;12.074;2023-02-18T12:42:27;97996.50;;;13.93;53.68
2841;BME280;53423;49.224;12.074;2023-02-18T12:45:14;98000.16;;;14.07;53.52
2841;BME280;53423;49.224;12.074;2023-02-18T12:50:54;97999.72;;;14.26;53.27
2841;BME280;53423;49.224;12.074;2023-02-18T12:53:39;97989.53;;;14.37;53.07
2841;BME280;53423;49.224;12.074;2023-02-18T12:56:26;98019.03;;;14.84;51.63
2841;BME280;53423;49.224;12.074;2023-02-18T12:59:05;97990.00;;;14.70;50.27
2841;BME280;53423;49.224;12.074;2023-02-18T13:01:45;97996.19;;;14.62;50.70
2841;BME280;53423;49.224;12.074;2023-02-18T13:04:26;97989.09;;;14.63;49.13
2841;BME280;53423;49.224;12.074;2023-02-18T13:07:20;97988.56;;;14.53;48.97
2841;BME280;53423;49.224;12.074;2023-02-18T13:13:01;97980.06;;;14.28;48.10
2841;BME280;53423;49.224;12.074;2023-02-18T13:15:36;97980.78;;;14.37;48.47
2841;BME280;53423;49.224;12.074;2023-02-18T13:18:11;97973.34;;;14.55;47.51
2841;BME280;53423;49.224;12.074;2023-02-18T13:20:45;97985.81;;;14.61;47.10
2841;BME280;53423;49.224;12.074;2023-02-18T13:23:20;97975.41;;;14.30;47.77
2841;BME280;53423;49.224;12.074;2023-02-18T13:25:53;97976.63;;;14.20;48.02
2841;BME280;53423;49.224;12.074;2023-02-18T13:28:30;97974.44;;;14.31;48.02
2841;BME280;53423;49.224;12.074;2023-02-18T13:31:09;97954.75;;;14.19;49.27
2841;BME280;53423;49.224;12.074;2023-02-18T13:33:46;97960.78;;;14.57;47.96
2841;BME280;53423;49.224;12.074;2023-02-18T13:36:31;97957.16;;;14.29;48.21
2841;BME280;53423;49.224;12.074;2023-02-18T13:39:04;97964.59;;;14.25;49.17
2841;BME280;53423;49.224;12.074;2023-02-18T13:41:38;97966.91;;;14.20;49.35